»·PEaware :: N425KM KSNS-A34

N425KM :: KSNS-A34

FLIGHT INFORMATION

Flight Status: Arrived
Operator: Privately registered:
United States
More flights under this callsign
Pilot: Matt G. (13672)
Aircraft: DORNIER 228
(D228)
More flights by this aircraft type
Origin: KSNS Salinas Mun
United States
Destination: A34 Dayton Valley
United States
More flights between these airports :: More routes between these airports
Route: DIRECT
File this flight plan on PilotEdge
Remarks:
Altitude:
(Current/Filed)
7,500ft
Speed:
(Current/Filed)
190kts
Departed: 27-Mar-18 06:55 AM
Arrived: 27-Mar-18 08:04 AM
Distance/Time
Traveled:
177nm/1:09
Distance/Time
To Go:
Arrived

Flight Plot

Page will automatically refresh every two minutes.


Map Options




Map Legend


Flown Route
Filed Route
Departure Airport
Arrival Airport
Navaid (VOR, NDB)
Fix

Horizontal Profiles

Position Reports

Time Latitude Longitude Heading Altitude Ground
Speed
27-Mar-18 06:34 36.664175 -121.610726 320 75ft 0kts
27-Mar-18 06:35 36.664175 -121.610726 320 75ft 0kts
27-Mar-18 06:36 36.664175 -121.610726 320 75ft 0kts
27-Mar-18 06:37 36.664175 -121.610726 320 75ft 0kts
27-Mar-18 06:38 36.664175 -121.610726 320 75ft 0kts
27-Mar-18 06:39 36.664175 -121.610726 320 75ft 0kts
27-Mar-18 06:40 36.664175 -121.610726 320 75ft 0kts
27-Mar-18 06:41 36.664175 -121.610726 320 75ft 0kts
27-Mar-18 06:42 36.664175 -121.610726 320 75ft 0kts
27-Mar-18 06:43 36.664175 -121.610726 320 75ft 0kts
27-Mar-18 06:44 36.664175 -121.610726 320 75ft 0kts
27-Mar-18 06:45 36.664175 -121.610726 320 75ft 0kts
27-Mar-18 06:46 36.664175 -121.610726 320 75ft 0kts
27-Mar-18 06:47 36.664175 -121.610726 320 75ft 0kts
27-Mar-18 06:48 36.664175 -121.610726 320 75ft 0kts
27-Mar-18 06:49 36.664175 -121.610726 320 75ft 0kts
27-Mar-18 06:50 36.666882 -121.610318 19 75ft 0kts
27-Mar-18 06:51 36.667893 -121.610656 13 75ft 0kts
27-Mar-18 06:52 36.667893 -121.610656 13 75ft 0kts
27-Mar-18 06:53 36.668296 -121.609760 149 75ft 0kts
27-Mar-18 06:54 36.654178 -121.594817 104 450ft 100kts
27-Mar-18 06:55 36.676386 -121.585089 1 1195ft 119kts
27-Mar-18 06:56 36.705585 -121.578815 22 3263ft 102kts
27-Mar-18 06:57 36.731076 -121.565861 29 5062ft 98kts
27-Mar-18 06:58 36.754083 -121.551710 32 6699ft 92kts
27-Mar-18 06:59 36.779159 -121.535371 27 7602ft 138kts
27-Mar-18 07:00 36.818969 -121.508961 26 7583ft 174kts
27-Mar-18 07:01 36.849141 -121.488715 26 7584ft 179kts
27-Mar-18 07:02 36.892615 -121.459431 26 7587ft 181kts
27-Mar-18 07:03 36.936964 -121.429491 26 7589ft 182kts
27-Mar-18 07:04 36.981531 -121.399351 26 7589ft 182kts
27-Mar-18 07:05 37.026072 -121.369184 26 7588ft 182kts
27-Mar-18 07:06 37.070761 -121.338870 26 7589ft 183kts
27-Mar-18 07:07 37.114185 -121.309384 27 7593ft 183kts
27-Mar-18 07:08 37.159104 -121.278821 26 7589ft 184kts
27-Mar-18 07:09 37.204051 -121.248203 26 7582ft 184kts
27-Mar-18 07:10 37.248951 -121.217579 25 7573ft 184kts
27-Mar-18 07:11 37.294107 -121.186752 25 7564ft 184kts
27-Mar-18 07:12 37.339104 -121.156001 25 7564ft 184kts
27-Mar-18 07:13 37.384319 -121.125042 25 7564ft 185kts
27-Mar-18 07:14 37.429518 -121.094050 26 7564ft 185kts
27-Mar-18 07:15 37.474581 -121.063107 26 7564ft 185kts
27-Mar-18 07:16 37.517465 -121.033621 26 7563ft 186kts
27-Mar-18 07:17 37.562111 -121.002881 26 7563ft 186kts
27-Mar-18 07:18 37.607309 -120.971719 26 7563ft 186kts
27-Mar-18 07:19 37.655443 -120.952512 7 7563ft 185kts
27-Mar-18 07:20 37.706383 -120.943046 7 7563ft 185kts
27-Mar-18 07:21 37.757280 -120.933503 7 7563ft 185kts
27-Mar-18 07:22 37.808058 -120.923946 7 7562ft 185kts
27-Mar-18 07:23 37.859157 -120.914324 7 7562ft 185kts
27-Mar-18 07:24 37.910082 -120.904722 7 7562ft 186kts
27-Mar-18 07:25 37.964034 -120.894542 7 7563ft 205kts
27-Mar-18 07:26 38.020558 -120.883844 6 7553ft 201kts
27-Mar-18 07:27 38.074809 -120.873561 5 7556ft 198kts
27-Mar-18 07:28 38.128557 -120.863362 5 7555ft 201kts
27-Mar-18 07:29 38.185300 -120.852674 12 7550ft 209kts
27-Mar-18 07:30 38.242669 -120.841695 12 7545ft 207kts
27-Mar-18 07:31 38.299461 -120.830870 12 7545ft 206kts
27-Mar-18 07:32 38.356041 -120.820069 12 7545ft 206kts
27-Mar-18 07:33 38.412520 -120.809271 12 7545ft 206kts
27-Mar-18 07:34 38.469029 -120.798448 12 7547ft 204kts
27-Mar-18 07:35 38.524853 -120.787740 11 7549ft 202kts
27-Mar-18 07:36 38.579830 -120.777178 11 7551ft 200kts
27-Mar-18 07:37 38.634240 -120.766711 11 7552ft 199kts
27-Mar-18 07:38 38.688360 -120.756284 11 7553ft 198kts
27-Mar-18 07:39 38.737792 -120.732549 51 7552ft 193kts
27-Mar-18 07:40 38.755945 -120.668135 67 7553ft 193kts
27-Mar-18 07:41 38.776854 -120.605017 64 7553ft 193kts
27-Mar-18 07:42 38.799117 -120.542254 64 7552ft 193kts
27-Mar-18 07:43 38.821497 -120.479588 64 7627ft 195kts
27-Mar-18 07:44 38.842733 -120.419919 62 8955ft 164kts
27-Mar-18 07:45 38.861801 -120.366402 61 10289ft 167kts
27-Mar-18 07:46 38.880978 -120.312480 61 11510ft 170kts
27-Mar-18 07:47 38.902799 -120.251095 62 11632ft 202kts
27-Mar-18 07:48 38.926432 -120.184325 62 11636ft 209kts
27-Mar-18 07:49 38.950445 -120.116330 62 11635ft 209kts
27-Mar-18 07:50 38.974359 -120.048463 62 11634ft 209kts
27-Mar-18 07:51 38.998185 -119.980695 62 11637ft 208kts
27-Mar-18 07:52 39.021861 -119.913197 62 11660ft 206kts
27-Mar-18 07:53 39.042600 -119.853813 61 11061ft 149kts
27-Mar-18 07:54 39.059031 -119.806805 61 9870ft 119kts
27-Mar-18 07:55 39.069989 -119.775511 61 8888ft 95kts
27-Mar-18 07:56 39.080912 -119.744287 62 6977ft 100kts
27-Mar-18 07:57 39.090756 -119.715998 61 6626ft 93kts
27-Mar-18 07:58 39.100250 -119.688676 61 6620ft 103kts
27-Mar-18 07:59 39.126481 -119.683427 2 6683ft 99kts
27-Mar-18 08:00 39.158547 -119.676124 11 6696ft 96kts
27-Mar-18 08:01 39.183448 -119.672928 328 6410ft 97kts
27-Mar-18 08:02 39.192905 -119.698663 318 5459ft 89kts
27-Mar-18 08:03 39.202358 -119.681767 58 4939ft 0kts
27-Mar-18 08:04 39.202393 -119.681731 30 4939ft 3kts
27-Mar-18 08:05 39.201640 -119.683927 252 4932ft 0kts
27-Mar-18 08:06 39.201640 -119.683927 252 4932ft 0kts
27-Mar-18 08:07 39.201640 -119.683927 252 4932ft 0kts

Navigation Log

Ident Type
Flight plan parsing failed, navigation log unavailable